Time;durP1;ratioP1;P1;durP2;ratioP2;P2;SDS_P1;SDS_P2;PMS_P1;PMS_P2;Temp;Humidity;BMP_temperature;BMP_pressure;BME280_temperature;BME280_humidity;BME280_pressure;Samples;Min_cycle;Max_cycle;Signal;HPM_P1;HPM_P2
2023/09/04 00:00:53;;;;;;;7.38;4.30;;;;;;;;;;2091024;28;20037;-58
2023/09/04 00:01:54;;;;;;;7.22;4.20;;;;;;;;;;2091241;28;20036;-57
2023/09/04 00:02:54;;;;;;;8.45;4.07;;;;;;;;;;2091263;28;20492;-56
2023/09/04 00:03:55;;;;;;;5.18;3.75;;;;;;;;;;2091462;28;20044;-57
2023/09/04 00:04:56;;;;;;;6.40;3.97;;;;;;;;;;2090947;28;20037;-57
2023/09/04 00:05:57;;;;;;;6.28;3.95;;;;;;;;;;2091345;28;20036;-57
2023/09/04 00:06:58;;;;;;;6.32;3.72;;;;;;;;;;2091252;28;20032;-57
2023/09/04 00:07:59;;;;;;;5.25;4.07;;;;;;;;;;2091227;28;20041;-57
2023/09/04 00:08:59;;;;;;;5.65;4.00;;;;;;;;;;2091332;28;20075;-57
2023/09/04 00:10:00;;;;;;;5.47;3.58;;;;;;;;;;2091345;28;20033;-57
2023/09/04 00:11:01;;;;;;;5.03;4.00;;;;;;;;;;2091187;28;20059;-56
2023/09/04 00:12:02;;;;;;;6.28;4.20;;;;;;;;;;2091247;28;20481;-57
2023/09/04 00:13:03;;;;;;;8.98;4.15;;;;;;;;;;2090915;28;20093;-57
2023/09/04 00:14:03;;;;;;;7.18;3.90;;;;;;;;;;2090885;28;20488;-56
2023/09/04 00:15:04;;;;;;;5.10;3.72;;;;;;;;;;2091400;28;20112;-56
2023/09/04 00:16:05;;;;;;;6.07;3.97;;;;;;;;;;2090839;28;20057;-56
2023/09/04 00:17:06;;;;;;;7.85;4.20;;;;;;;;;;2090783;28;20083;-57
2023/09/04 00:18:07;;;;;;;5.85;4.00;;;;;;;;;;2091308;28;20064;-57
2023/09/04 00:19:08;;;;;;;5.28;4.30;;;;;;;;;;2090593;28;20044;-56
2023/09/04 00:20:10;;;;;;;4.93;3.88;;;;;;;;;;2090116;28;20045;-57
2023/09/04 00:21:11;;;;;;;6.13;3.92;;;;;;;;;;2090837;28;20041;-57
2023/09/04 00:22:12;;;;;;;5.65;4.22;;;;;;;;;;2091168;28;20409;-57
2023/09/04 00:23:13;;;;;;;6.82;4.25;;;;;;;;;;2091113;28;20470;-57
2023/09/04 00:24:14;;;;;;;4.85;3.90;;;;;;;;;;2091177;28;20029;-57
2023/09/04 00:25:14;;;;;;;5.88;3.80;;;;;;;;;;2090385;28;20032;-57
2023/09/04 00:26:15;;;;;;;6.95;4.10;;;;;;;;;;2091036;28;20116;-56
2023/09/04 00:27:19;;;;;;;7.85;4.22;;;;;;;;;;2090197;28;20041;-57
2023/09/04 00:28:20;;;;;;;5.07;3.90;;;;;;;;;;2082591;28;20482;-56
2023/09/04 00:29:20;;;;;;;5.32;4.20;;;;;;;;;;2090248;28;20064;-57
2023/09/04 00:30:22;;;;;;;5.65;4.05;;;;;;;;;;2090107;28;20048;-56
2023/09/04 00:31:22;;;;;;;6.63;4.57;;;;;;;;;;2082712;28;20056;-57
2023/09/04 00:32:23;;;;;;;5.97;3.90;;;;;;;;;;2090254;28;20059;-57
2023/09/04 00:33:24;;;;;;;6.78;4.32;;;;;;;;;;2090316;28;20041;-57
2023/09/04 00:34:24;;;;;;;6.80;4.35;;;;;;;;;;2090588;28;20401;-57
2023/09/04 00:35:25;;;;;;;9.00;4.50;;;;;;;;;;2091002;28;20029;-57
2023/09/04 00:36:26;;;;;;;9.05;4.05;;;;;;;;;;2090464;28;20155;-57
2023/09/04 00:37:27;;;;;;;6.45;4.05;;;;;;;;;;2090110;28;20072;-57
2023/09/04 00:38:27;;;;;;;5.55;4.18;;;;;;;;;;2091084;28;20041;-57
2023/09/04 00:39:28;;;;;;;6.18;3.83;;;;;;;;;;2091094;28;20037;-57
2023/09/04 00:40:29;;;;;;;5.70;4.10;;;;;;;;;;2090696;28;20056;-57
2023/09/04 00:41:29;;;;;;;5.68;3.92;;;;;;;;;;2090221;28;20428;-56
2023/09/04 00:42:30;;;;;;;7.30;3.53;;;;;;;;;;2082329;28;20042;-56
2023/09/04 00:43:34;;;;;;;9.15;3.85;;;;;;;;;;2089959;28;20112;-56
2023/09/04 00:44:35;;;;;;;4.22;3.80;;;;;;;;;;2097647;28;20048;-56
2023/09/04 00:45:36;;;;;;;6.40;4.40;;;;;;;;;;2090994;28;20029;-56
2023/09/04 00:46:37;;;;;;;6.05;4.30;;;;;;;;;;2082097;28;20044;-56
2023/09/04 00:47:40;;;;;;;5.25;3.90;;;;;;;;;;2074019;28;20060;-56
2023/09/04 00:48:41;;;;;;;5.03;4.03;;;;;;;;;;2090058;28;20489;-56
2023/09/04 00:49:42;;;;;;;5.15;4.28;;;;;;;;;;2098332;28;20036;-56
2023/09/04 00:50:43;;;;;;;6.43;4.45;;;;;;;;;;2089640;28;20041;-57
2023/09/04 00:51:44;;;;;;;6.45;4.72;;;;;;;;;;2090188;28;20574;-57
2023/09/04 00:52:45;;;;;;;6.53;4.20;;;;;;;;;;2098076;28;20413;-57
2023/09/04 00:53:46;;;;;;;6.82;4.03;;;;;;;;;;2090326;28;20496;-58
2023/09/04 00:54:46;;;;;;;5.75;4.10;;;;;;;;;;2090487;28;20025;-57
2023/09/04 00:55:47;;;;;;;6.78;4.20;;;;;;;;;;2081632;28;20056;-55
2023/09/04 00:56:51;;;;;;;4.90;4.30;;;;;;;;;;2081758;28;20045;-56
2023/09/04 00:57:52;;;;;;;5.75;4.35;;;;;;;;;;2090066;28;20045;-57
2023/09/04 00:58:52;;;;;;;8.45;4.80;;;;;;;;;;2090054;28;20096;-55
2023/09/04 00:59:53;;;;;;;5.60;4.38;;;;;;;;;;2090947;28;20461;-57
2023/09/04 01:00:54;;;;;;;6.18;4.50;;;;;;;;;;2090893;28;20071;-57
2023/09/04 01:01:55;;;;;;;8.35;4.70;;;;;;;;;;2089945;28;20041;-58
2023/09/04 01:02:56;;;;;;;5.68;4.68;;;;;;;;;;2090405;28;20035;-58
2023/09/04 01:03:57;;;;;;;7.95;4.32;;;;;;;;;;2074108;28;20567;-57
2023/09/04 01:04:57;;;;;;;6.45;3.95;;;;;;;;;;2082273;28;20068;-57
2023/09/04 01:05:58;;;;;;;6.90;4.63;;;;;;;;;;2091378;28;20476;-57
2023/09/04 01:06:59;;;;;;;6.20;4.53;;;;;;;;;;2090799;28;20064;-57
2023/09/04 01:08:00;;;;;;;5.80;4.32;;;;;;;;;;2090777;28;20045;-57
2023/09/04 01:09:01;;;;;;;6.78;4.38;;;;;;;;;;2090738;28;20055;-57
2023/09/04 01:10:03;;;;;;;9.68;4.57;;;;;;;;;;2090336;28;20037;-58
2023/09/04 01:11:22;;;;;;;6.32;4.85;;;;;;;;;;2082225;28;20040;-56
2023/09/04 01:12:39;;;;;;;8.52;4.78;;;;;;;;;;2090661;28;20045;-55
2023/09/04 01:13:49;;;;;;;5.88;4.40;;;;;;;;;;2090698;28;20036;-56
2023/09/04 01:14:51;;;;;;;8.50;4.68;;;;;;;;;;2090210;28;20127;-56
2023/09/04 01:15:52;;;;;;;6.07;4.82;;;;;;;;;;2090099;28;20397;-56
2023/09/04 01:16:52;;;;;;;7.72;4.85;;;;;;;;;;2089795;28;20045;-56
2023/09/04 01:17:53;;;;;;;5.60;4.65;;;;;;;;;;2089792;28;20032;-57
2023/09/04 01:18:54;;;;;;;6.32;4.95;;;;;;;;;;2090045;28;20037;-56
2023/09/04 01:19:54;;;;;;;7.45;4.85;;;;;;;;;;2081861;28;20017;-58
2023/09/04 01:21:04;;;;;;;5.78;4.80;;;;;;;;;;2089828;28;20055;-58
2023/09/04 01:22:06;;;;;;;8.27;5.50;;;;;;;;;;2090141;28;20041;-57
2023/09/04 01:23:08;;;;;;;6.47;4.43;;;;;;;;;;2089510;28;20113;-57
2023/09/04 01:24:09;;;;;;;6.22;5.28;;;;;;;;;;2090655;28;20396;-57
2023/09/04 01:25:09;;;;;;;6.72;4.80;;;;;;;;;;2090674;28;20053;-58
2023/09/04 01:26:13;;;;;;;7.53;5.22;;;;;;;;;;2081828;28;20048;-58
2023/09/04 01:27:16;;;;;;;8.18;5.13;;;;;;;;;;2081950;28;20046;-57
2023/09/04 01:28:18;;;;;;;6.47;4.55;;;;;;;;;;2090167;28;20028;-57
2023/09/04 01:29:18;;;;;;;6.78;5.07;;;;;;;;;;2082084;28;20397;-57
2023/09/04 01:30:24;;;;;;;6.03;4.53;;;;;;;;;;2090022;28;20028;-57
2023/09/04 01:31:44;;;;;;;7.40;5.45;;;;;;;;;;2090149;28;20477;-57
2023/09/04 01:32:46;;;;;;;6.32;5.00;;;;;;;;;;2090520;28;20524;-58
2023/09/04 01:33:49;;;;;;;6.75;5.68;;;;;;;;;;2090842;28;20427;-57
2023/09/04 01:34:51;;;;;;;6.78;5.47;;;;;;;;;;2089731;28;20089;-57
2023/09/04 01:35:52;;;;;;;7.85;4.82;;;;;;;;;;2081403;28;20041;-57
2023/09/04 01:36:53;;;;;;;8.75;5.70;;;;;;;;;;2073272;28;20034;-57
2023/09/04 01:37:54;;;;;;;8.13;5.40;;;;;;;;;;2073730;28;20041;-57
2023/09/04 01:38:55;;;;;;;7.10;5.20;;;;;;;;;;2081712;28;20548;-56
2023/09/04 01:39:56;;;;;;;8.30;5.90;;;;;;;;;;2081675;28;20038;-56
2023/09/04 01:40:56;;;;;;;9.13;5.60;;;;;;;;;;2090174;28;20504;-56
2023/09/04 01:41:57;;;;;;;6.55;5.05;;;;;;;;;;2090207;28;20145;-56
2023/09/04 01:42:58;;;;;;;7.28;6.03;;;;;;;;;;2089816;28;20091;-58
2023/09/04 01:43:59;;;;;;;8.40;5.57;;;;;;;;;;2090018;28;20033;-56
2023/09/04 01:44:59;;;;;;;7.60;5.55;;;;;;;;;;2089924;28;20397;-56
2023/09/04 01:46:00;;;;;;;7.28;5.65;;;;;;;;;;2089730;28;20128;-56
2023/09/04 01:47:01;;;;;;;6.72;5.75;;;;;;;;;;2090516;28;20025;-57
2023/09/04 01:48:02;;;;;;;9.85;5.25;;;;;;;;;;2081545;28;20065;-58
2023/09/04 01:49:02;;;;;;;8.05;6.05;;;;;;;;;;2081623;28;20120;-56
2023/09/04 01:50:03;;;;;;;8.25;5.63;;;;;;;;;;2091244;28;20065;-57
2023/09/04 01:51:04;;;;;;;7.55;6.30;;;;;;;;;;2090098;28;20048;-56
2023/09/04 01:52:05;;;;;;;7.78;5.50;;;;;;;;;;2090628;28;20461;-55
2023/09/04 01:53:05;;;;;;;7.78;6.15;;;;;;;;;;2089840;28;20052;-56
2023/09/04 01:54:08;;;;;;;7.53;5.72;;;;;;;;;;2080659;28;20048;-56
2023/09/04 01:55:08;;;;;;;9.85;5.97;;;;;;;;;;2089806;28;20057;-56
2023/09/04 01:56:09;;;;;;;7.28;6.15;;;;;;;;;;2091063;28;20409;-57
2023/09/04 01:57:10;;;;;;;7.32;5.85;;;;;;;;;;2089503;28;20044;-56
2023/09/04 01:58:11;;;;;;;7.85;6.63;;;;;;;;;;2089746;28;20033;-56
2023/09/04 01:59:11;;;;;;;8.60;6.28;;;;;;;;;;2081252;28;20059;-56
2023/09/04 02:00:12;;;;;;;6.95;6.25;;;;;;;;;;2081536;28;20163;-58
2023/09/04 02:01:15;;;;;;;8.43;6.60;;;;;;;;;;2090474;28;20398;-56
2023/09/04 02:02:16;;;;;;;7.22;6.07;;;;;;;;;;2090098;28;20125;-57
2023/09/04 02:03:17;;;;;;;7.85;6.25;;;;;;;;;;2090109;28;20044;-58
2023/09/04 02:04:19;;;;;;;8.50;6.18;;;;;;;;;;2090314;28;20042;-57
2023/09/04 02:05:20;;;;;;;7.65;6.05;;;;;;;;;;2090363;28;20063;-57
2023/09/04 02:06:21;;;;;;;14.85;6.57;;;;;;;;;;2090247;28;20048;-58
2023/09/04 02:07:22;;;;;;;8.35;6.57;;;;;;;;;;2090246;28;20489;-56
2023/09/04 02:08:23;;;;;;;8.35;6.05;;;;;;;;;;2090327;28;20029;-57
2023/09/04 02:09:24;;;;;;;7.43;6.03;;;;;;;;;;2090087;28;20041;-56
2023/09/04 02:10:26;;;;;;;7.63;6.20;;;;;;;;;;2090271;28;20044;-57
2023/09/04 02:11:27;;;;;;;10.57;5.85;;;;;;;;;;2090422;28;20049;-58
2023/09/04 02:12:28;;;;;;;8.52;6.82;;;;;;;;;;2089418;28;20044;-58
2023/09/04 02:13:29;;;;;;;8.48;6.50;;;;;;;;;;2081662;28;20124;-57
2023/09/04 02:14:31;;;;;;;7.22;6.32;;;;;;;;;;2081261;28;20425;-57
2023/09/04 02:15:32;;;;;;;7.70;6.20;;;;;;;;;;2081216;28;20049;-57
2023/09/04 02:16:32;;;;;;;9.57;6.50;;;;;;;;;;2089457;28;20124;-58
2023/09/04 02:17:33;;;;;;;8.98;6.38;;;;;;;;;;2089864;28;20545;-58
2023/09/04 02:18:34;;;;;;;12.50;6.80;;;;;;;;;;2089056;28;20532;-58
2023/09/04 02:19:36;;;;;;;8.35;6.57;;;;;;;;;;2089616;28;20041;-57
2023/09/04 02:20:36;;;;;;;9.07;7.03;;;;;;;;;;2081067;28;20041;-57
2023/09/04 02:21:37;;;;;;;8.95;6.57;;;;;;;;;;2089921;28;20457;-57
2023/09/04 02:22:38;;;;;;;15.15;7.00;;;;;;;;;;2090790;28;20048;-58
2023/09/04 02:23:38;;;;;;;8.05;6.50;;;;;;;;;;2089743;28;20044;-57
2023/09/04 02:24:42;;;;;;;9.77;6.10;;;;;;;;;;2081421;28;20029;-57
2023/09/04 02:25:42;;;;;;;7.68;6.75;;;;;;;;;;2081867;28;20409;-58
2023/09/04 02:26:43;;;;;;;7.53;6.35;;;;;;;;;;2088992;28;20033;-57
2023/09/04 02:27:44;;;;;;;8.55;6.57;;;;;;;;;;2090566;28;20033;-56
2023/09/04 02:28:44;;;;;;;8.63;6.68;;;;;;;;;;2089938;28;20037;-58
2023/09/04 02:29:46;;;;;;;8.70;6.95;;;;;;;;;;2089681;28;20036;-57
2023/09/04 02:30:46;;;;;;;8.00;6.85;;;;;;;;;;2089225;28;20501;-57
2023/09/04 02:31:47;;;;;;;9.57;6.90;;;;;;;;;;2090776;28;20040;-58
2023/09/04 02:32:48;;;;;;;9.10;6.65;;;;;;;;;;2090234;28;20047;-57
2023/09/04 02:33:48;;;;;;;8.15;6.55;;;;;;;;;;2089893;28;20123;-57
2023/09/04 02:34:49;;;;;;;8.15;6.88;;;;;;;;;;2088712;28;20037;-57
2023/09/04 02:35:51;;;;;;;8.25;6.65;;;;;;;;;;2089544;28;20029;-58
2023/09/04 02:36:52;;;;;;;12.02;7.20;;;;;;;;;;2089500;28;20033;-57
2023/09/04 02:37:53;;;;;;;10.93;7.30;;;;;;;;;;2089658;28;20036;-58
2023/09/04 02:38:55;;;;;;;7.68;6.03;;;;;;;;;;2089910;28;20041;-57
2023/09/04 02:39:56;;;;;;;8.75;6.57;;;;;;;;;;2090189;28;20063;-57
2023/09/04 02:40:57;;;;;;;9.35;6.53;;;;;;;;;;2089786;28;20452;-57
2023/09/04 02:41:58;;;;;;;7.57;6.68;;;;;;;;;;2089606;28;20045;-58
2023/09/04 02:42:59;;;;;;;9.88;7.57;;;;;;;;;;2089968;28;20469;-58
2023/09/04 02:44:00;;;;;;;8.98;7.38;;;;;;;;;;2089743;28;20128;-57
2023/09/04 02:45:00;;;;;;;7.60;6.38;;;;;;;;;;2090138;28;20048;-57
2023/09/04 02:46:01;;;;;;;7.32;6.57;;;;;;;;;;2089522;28;20041;-57
2023/09/04 02:47:02;;;;;;;8.13;6.88;;;;;;;;;;2089726;28;20040;-57
2023/09/04 02:48:04;;;;;;;10.02;7.40;;;;;;;;;;2089579;28;20041;-57
2023/09/04 02:49:05;;;;;;;8.35;6.65;;;;;;;;;;2089673;28;20049;-57
2023/09/04 02:50:06;;;;;;;8.30;6.78;;;;;;;;;;2091105;28;20040;-57
2023/09/04 02:51:08;;;;;;;11.25;7.20;;;;;;;;;;2091232;28;20409;-57
2023/09/04 02:52:09;;;;;;;7.80;6.47;;;;;;;;;;2091883;28;20079;-57
2023/09/04 02:53:09;;;;;;;13.32;7.57;;;;;;;;;;2092278;28;20120;-57
2023/09/04 02:54:10;;;;;;;7.43;6.05;;;;;;;;;;2091405;28;20123;-57
2023/09/04 02:55:11;;;;;;;8.93;7.03;;;;;;;;;;2091317;28;20048;-57
2023/09/04 02:56:12;;;;;;;8.00;6.75;;;;;;;;;;2091258;28;20072;-57
2023/09/04 02:57:12;;;;;;;8.95;6.80;;;;;;;;;;2091198;28;20033;-58
2023/09/04 02:58:13;;;;;;;9.43;6.93;;;;;;;;;;2099292;28;20048;-57
2023/09/04 02:59:14;;;;;;;10.65;7.50;;;;;;;;;;2090698;28;20547;-57
2023/09/04 03:00:15;;;;;;;10.25;7.32;;;;;;;;;;2090779;28;20047;-57
2023/09/04 03:01:18;;;;;;;10.35;7.22;;;;;;;;;;2091331;28;20072;-58
2023/09/04 03:02:19;;;;;;;8.98;7.00;;;;;;;;;;2091547;28;20049;-57
2023/09/04 03:03:20;;;;;;;8.57;6.75;;;;;;;;;;2091349;28;20029;-57
2023/09/04 03:04:21;;;;;;;9.40;6.63;;;;;;;;;;2090872;28;20044;-57
2023/09/04 03:05:24;;;;;;;11.20;7.53;;;;;;;;;;2090547;28;20047;-57
2023/09/04 03:06:25;;;;;;;9.65;7.38;;;;;;;;;;2090503;28;20051;-57
2023/09/04 03:07:26;;;;;;;9.95;6.90;;;;;;;;;;2091085;28;20095;-57
2023/09/04 03:08:27;;;;;;;8.20;6.78;;;;;;;;;;2090965;28;20543;-57
2023/09/04 03:09:28;;;;;;;9.02;6.57;;;;;;;;;;2091211;28;20074;-57
2023/09/04 03:10:31;;;;;;;8.73;7.40;;;;;;;;;;2082786;28;20042;-57
2023/09/04 03:11:32;;;;;;;9.75;7.00;;;;;;;;;;2090869;28;20041;-57
2023/09/04 03:12:33;;;;;;;9.00;6.88;;;;;;;;;;2082937;28;20124;-57
2023/09/04 03:13:35;;;;;;;9.60;7.53;;;;;;;;;;2082600;28;20041;-57
2023/09/04 03:14:36;;;;;;;10.20;7.43;;;;;;;;;;2082575;28;20049;-57
2023/09/04 03:15:37;;;;;;;9.73;7.35;;;;;;;;;;2082810;28;20038;-57
2023/09/04 03:16:37;;;;;;;11.05;6.95;;;;;;;;;;2091002;28;20037;-57
2023/09/04 03:17:38;;;;;;;9.23;7.53;;;;;;;;;;2091150;28;20424;-57
2023/09/04 03:18:39;;;;;;;11.13;7.43;;;;;;;;;;2082798;28;20477;-57
2023/09/04 03:19:40;;;;;;;9.88;7.15;;;;;;;;;;2091156;28;20032;-57
2023/09/04 03:20:41;;;;;;;8.27;7.20;;;;;;;;;;2090385;28;20044;-57
2023/09/04 03:21:42;;;;;;;9.93;7.70;;;;;;;;;;2090995;28;20048;-57
2023/09/04 03:22:43;;;;;;;9.18;7.78;;;;;;;;;;2091168;28;20020;-58
2023/09/04 03:23:46;;;;;;;8.57;6.97;;;;;;;;;;2090920;28;20044;-57
2023/09/04 03:24:46;;;;;;;10.82;8.23;;;;;;;;;;2090993;28;20029;-57
2023/09/04 03:25:47;;;;;;;10.77;8.25;;;;;;;;;;2090615;28;20064;-58
2023/09/04 03:26:48;;;;;;;10.52;7.85;;;;;;;;;;2091002;28;20058;-57
2023/09/04 03:27:49;;;;;;;9.63;7.70;;;;;;;;;;2090124;28;20477;-57
2023/09/04 03:28:52;;;;;;;10.15;8.27;;;;;;;;;;2091303;28;20033;-57
2023/09/04 03:29:53;;;;;;;9.75;8.32;;;;;;;;;;2090946;28;20029;-57
2023/09/04 03:30:54;;;;;;;10.60;8.57;;;;;;;;;;2090209;28;20473;-57
2023/09/04 03:31:57;;;;;;;10.88;8.50;;;;;;;;;;2090495;28;20055;-56
2023/09/04 03:32:59;;;;;;;13.77;8.32;;;;;;;;;;2090924;28;20051;-57
2023/09/04 03:34:00;;;;;;;9.68;8.65;;;;;;;;;;2089900;28;20052;-57
2023/09/04 03:35:04;;;;;;;10.27;8.60;;;;;;;;;;2090579;28;20416;-56
2023/09/04 03:36:05;;;;;;;10.07;7.93;;;;;;;;;;2082634;28;20520;-57
2023/09/04 03:37:06;;;;;;;10.23;8.68;;;;;;;;;;2090901;28;20056;-57
2023/09/04 03:38:06;;;;;;;11.10;8.25;;;;;;;;;;2090584;28;20102;-57
2023/09/04 03:39:09;;;;;;;10.60;8.30;;;;;;;;;;2081852;28;20041;-57
2023/09/04 03:40:22;;;;;;;8.23;7.32;;;;;;;;;;2082964;28;20060;-57
2023/09/04 03:41:23;;;;;;;9.75;7.80;;;;;;;;;;2084289;28;20378;-57
2023/09/04 03:42:23;;;;;;;9.05;7.22;;;;;;;;;;2082595;28;20041;-57
2023/09/04 03:43:24;;;;;;;13.65;8.00;;;;;;;;;;2090991;28;20029;-57
2023/09/04 03:44:26;;;;;;;8.73;7.50;;;;;;;;;;2090717;28;20044;-57
2023/09/04 03:45:33;;;;;;;10.13;8.30;;;;;;;;;;2091161;28;20041;-57
2023/09/04 03:46:33;;;;;;;9.73;7.38;;;;;;;;;;2091518;28;20037;-57
2023/09/04 03:47:34;;;;;;;10.57;8.60;;;;;;;;;;2090843;28;20041;-57
2023/09/04 03:48:35;;;;;;;10.10;8.07;;;;;;;;;;2090293;28;20045;-57
2023/09/04 03:49:36;;;;;;;10.88;7.82;;;;;;;;;;2090949;28;20025;-57
2023/09/04 03:50:37;;;;;;;11.50;9.38;;;;;;;;;;2082547;28;20493;-57
2023/09/04 03:51:38;;;;;;;11.88;8.40;;;;;;;;;;2091003;28;20516;-57
2023/09/04 03:52:39;;;;;;;10.80;8.98;;;;;;;;;;2090366;28;20045;-56
2023/09/04 03:53:40;;;;;;;12.18;8.25;;;;;;;;;;2090778;28;20041;-57
2023/09/04 03:54:40;;;;;;;10.60;8.43;;;;;;;;;;2091161;28;20510;-57
2023/09/04 03:55:42;;;;;;;10.13;8.02;;;;;;;;;;2091046;28;20033;-56
2023/09/04 03:56:43;;;;;;;13.82;9.32;;;;;;;;;;2089870;28;20041;-57
2023/09/04 03:57:46;;;;;;;9.82;8.30;;;;;;;;;;2082947;28;20041;-57
2023/09/04 03:58:47;;;;;;;13.38;9.75;;;;;;;;;;2090685;28;20045;-57
2023/09/04 03:59:51;;;;;;;10.93;8.80;;;;;;;;;;2090620;28;20250;-56
2023/09/04 04:00:57;;;;;;;10.60;9.20;;;;;;;;;;2090524;28;20049;-57
2023/09/04 04:01:58;;;;;;;11.13;7.63;;;;;;;;;;2090334;28;20045;-58
2023/09/04 04:03:00;;;;;;;11.60;8.60;;;;;;;;;;2082562;28;20469;-57
2023/09/04 04:04:02;;;;;;;12.48;9.48;;;;;;;;;;2082827;28;20045;-57
2023/09/04 04:05:03;;;;;;;9.32;8.15;;;;;;;;;;2082725;28;20086;-55
2023/09/04 04:06:10;;;;;;;9.82;8.77;;;;;;;;;;2090641;28;20033;-58
2023/09/04 04:07:10;;;;;;;10.90;8.60;;;;;;;;;;2090975;28;20068;-57
2023/09/04 04:08:11;;;;;;;10.82;8.45;;;;;;;;;;2091191;28;20040;-56
2023/09/04 04:09:13;;;;;;;11.65;8.02;;;;;;;;;;2090998;28;20049;-57
2023/09/04 04:10:14;;;;;;;12.05;8.75;;;;;;;;;;2091184;28;20035;-57
2023/09/04 04:11:15;;;;;;;11.60;9.38;;;;;;;;;;2090963;28;20179;-57
2023/09/04 04:12:16;;;;;;;11.40;8.88;;;;;;;;;;2091185;28;20033;-57
2023/09/04 04:13:16;;;;;;;8.85;7.50;;;;;;;;;;2091047;28;20041;-58
2023/09/04 04:14:17;;;;;;;12.07;9.32;;;;;;;;;;2091412;28;20029;-57
2023/09/04 04:15:18;;;;;;;10.23;8.77;;;;;;;;;;2090298;28;20052;-58
2023/09/04 04:16:19;;;;;;;12.88;8.88;;;;;;;;;;2090486;28;20053;-57
2023/09/04 04:17:19;;;;;;;10.50;8.60;;;;;;;;;;2091574;28;20056;-57
2023/09/04 04:18:20;;;;;;;10.32;9.02;;;;;;;;;;2090256;28;20131;-58
2023/09/04 04:19:21;;;;;;;10.70;9.00;;;;;;;;;;2090402;28;20045;-57
2023/09/04 04:20:22;;;;;;;11.77;9.23;;;;;;;;;;2091176;28;20543;-58
2023/09/04 04:21:22;;;;;;;12.68;9.60;;;;;;;;;;2090130;28;20388;-57
2023/09/04 04:22:23;;;;;;;12.05;9.25;;;;;;;;;;2090475;28;20041;-57
2023/09/04 04:23:24;;;;;;;11.00;9.27;;;;;;;;;;2090610;28;20183;-57
2023/09/04 04:24:25;;;;;;;14.18;8.93;;;;;;;;;;2090552;28;20033;-58
2023/09/04 04:25:25;;;;;;;10.95;8.85;;;;;;;;;;2082074;28;20054;-57
2023/09/04 04:26:26;;;;;;;10.93;8.82;;;;;;;;;;2081975;28;20488;-57
2023/09/04 04:27:27;;;;;;;14.07;9.38;;;;;;;;;;2090806;28;20029;-57
2023/09/04 04:28:28;;;;;;;11.65;9.75;;;;;;;;;;2091677;28;20044;-58
2023/09/04 04:29:28;;;;;;;12.63;8.98;;;;;;;;;;2090676;28;20508;-57
2023/09/04 04:30:29;;;;;;;12.18;9.85;;;;;;;;;;2090454;28;20045;-57
2023/09/04 04:31:30;;;;;;;11.10;9.63;;;;;;;;;;2090357;28;20523;-57
2023/09/04 04:32:31;;;;;;;12.55;10.18;;;;;;;;;;2082214;28;20060;-57
2023/09/04 04:33:32;;;;;;;13.73;9.85;;;;;;;;;;2081545;28;20041;-57
2023/09/04 04:34:32;;;;;;;13.07;9.98;;;;;;;;;;2082231;28;20041;-57
2023/09/04 04:35:33;;;;;;;12.15;10.07;;;;;;;;;;2090334;28;20029;-57
2023/09/04 04:36:34;;;;;;;11.52;9.40;;;;;;;;;;2089969;28;20032;-57
2023/09/04 04:37:34;;;;;;;12.52;9.65;;;;;;;;;;2090855;28;20064;-57
2023/09/04 04:38:36;;;;;;;12.23;9.63;;;;;;;;;;2090705;28;20041;-57
2023/09/04 04:39:39;;;;;;;10.38;9.27;;;;;;;;;;2082287;28;20489;-57
2023/09/04 04:40:39;;;;;;;11.88;9.10;;;;;;;;;;2082133;28;20065;-57
2023/09/04 04:41:40;;;;;;;10.73;8.63;;;;;;;;;;2090312;28;20025;-57
2023/09/04 04:42:41;;;;;;;10.93;9.20;;;;;;;;;;2090166;28;20036;-57
2023/09/04 04:43:44;;;;;;;13.40;9.27;;;;;;;;;;2082351;28;20092;-57
2023/09/04 04:44:45;;;;;;;11.18;8.75;;;;;;;;;;2082465;28;20040;-57
2023/09/04 04:45:48;;;;;;;12.38;9.65;;;;;;;;;;2082024;28;20037;-57
2023/09/04 04:46:50;;;;;;;12.30;9.13;;;;;;;;;;2081952;28;20473;-57
2023/09/04 04:47:53;;;;;;;11.02;9.05;;;;;;;;;;2090186;28;20477;-57
2023/09/04 04:48:54;;;;;;;11.43;8.02;;;;;;;;;;2089729;28;20041;-56
2023/09/04 04:49:55;;;;;;;11.48;8.65;;;;;;;;;;2090303;28;20037;-56
2023/09/04 04:50:56;;;;;;;9.98;8.07;;;;;;;;;;2081921;28;20033;-56
2023/09/04 04:51:58;;;;;;;10.65;8.18;;;;;;;;;;2082252;28;20037;-56
2023/09/04 04:52:59;;;;;;;9.68;7.07;;;;;;;;;;2082140;28;20060;-56
2023/09/04 04:54:00;;;;;;;9.45;8.07;;;;;;;;;;2090291;28;20037;-57
2023/09/04 04:55:01;;;;;;;9.10;7.60;;;;;;;;;;2090269;28;20045;-56
2023/09/04 04:56:02;;;;;;;10.05;7.97;;;;;;;;;;2081935;28;20479;-57
2023/09/04 04:57:03;;;;;;;8.80;6.72;;;;;;;;;;2082075;28;20087;-56
2023/09/04 04:58:04;;;;;;;9.77;6.47;;;;;;;;;;2089728;28;20060;-56
2023/09/04 04:59:05;;;;;;;9.13;7.43;;;;;;;;;;2098013;28;20543;-56
2023/09/04 05:00:07;;;;;;;8.23;6.80;;;;;;;;;;2090619;28;20033;-56
2023/09/04 05:01:08;;;;;;;8.60;6.57;;;;;;;;;;2089898;28;20092;-58
2023/09/04 05:02:10;;;;;;;8.43;7.18;;;;;;;;;;2089717;28;20045;-56
2023/09/04 05:03:11;;;;;;;8.55;7.22;;;;;;;;;;2090432;28;20453;-57
2023/09/04 05:04:12;;;;;;;7.90;6.90;;;;;;;;;;2089846;28;20037;-56
2023/09/04 05:05:12;;;;;;;8.13;6.05;;;;;;;;;;2090019;28;20025;-56
2023/09/04 05:06:13;;;;;;;8.38;6.22;;;;;;;;;;2090068;28;20374;-58
2023/09/04 05:07:14;;;;;;;8.63;7.05;;;;;;;;;;2089615;28;20044;-58
2023/09/04 05:08:15;;;;;;;7.75;5.57;;;;;;;;;;2091429;28;20045;-56
2023/09/04 05:09:18;;;;;;;8.68;6.35;;;;;;;;;;2089507;28;20041;-58
2023/09/04 05:10:19;;;;;;;8.43;6.10;;;;;;;;;;2090401;28;20045;-57
2023/09/04 05:11:20;;;;;;;8.43;6.78;;;;;;;;;;2089739;28;20041;-56
2023/09/04 05:12:22;;;;;;;8.55;6.15;;;;;;;;;;2081716;28;20037;-57
2023/09/04 05:13:23;;;;;;;8.75;6.20;;;;;;;;;;2073550;28;20046;-57
2023/09/04 05:14:24;;;;;;;8.43;6.00;;;;;;;;;;2081618;28;20429;-56
2023/09/04 05:15:26;;;;;;;9.75;6.30;;;;;;;;;;2090018;28;20041;-57
2023/09/04 05:16:27;;;;;;;10.63;6.30;;;;;;;;;;2082102;28;20037;-57
2023/09/04 05:17:28;;;;;;;8.27;5.60;;;;;;;;;;2089169;28;20045;-58
2023/09/04 05:18:28;;;;;;;7.72;5.82;;;;;;;;;;2081809;28;20056;-57
2023/09/04 05:19:29;;;;;;;8.93;5.57;;;;;;;;;;2089618;28;20060;-56
2023/09/04 05:20:30;;;;;;;8.98;6.18;;;;;;;;;;2090458;28;20041;-57
2023/09/04 05:21:30;;;;;;;8.07;5.70;;;;;;;;;;2090409;28;20045;-57
2023/09/04 05:22:32;;;;;;;9.63;6.85;;;;;;;;;;2090071;28;20052;-56
2023/09/04 05:23:33;;;;;;;8.70;7.00;;;;;;;;;;2089622;28;20059;-57
2023/09/04 05:24:34;;;;;;;8.80;6.00;;;;;;;;;;2088903;28;20045;-57
2023/09/04 05:25:35;;;;;;;7.93;6.32;;;;;;;;;;2089793;28;20025;-58
2023/09/04 05:26:36;;;;;;;7.75;5.75;;;;;;;;;;2090043;28;20045;-57
2023/09/04 05:27:37;;;;;;;9.25;7.25;;;;;;;;;;2081705;28;20026;-57
2023/09/04 05:28:37;;;;;;;8.32;6.63;;;;;;;;;;2090187;28;20107;-57
2023/09/04 05:29:38;;;;;;;8.93;5.93;;;;;;;;;;2090250;28;20488;-58
2023/09/04 05:30:39;;;;;;;8.30;6.43;;;;;;;;;;2090823;28;20029;-58
2023/09/04 05:31:39;;;;;;;8.27;5.75;;;;;;;;;;2090306;28;20055;-57
2023/09/04 05:32:40;;;;;;;11.05;6.55;;;;;;;;;;2090674;28;20485;-56
2023/09/04 05:33:41;;;;;;;6.93;5.50;;;;;;;;;;2090408;28;20044;-58
2023/09/04 05:34:42;;;;;;;8.68;5.72;;;;;;;;;;2090253;28;20048;-58
2023/09/04 05:35:42;;;;;;;7.97;6.05;;;;;;;;;;2090635;28;20052;-58
2023/09/04 05:36:43;;;;;;;7.32;5.15;;;;;;;;;;2090635;28;20032;-57
2023/09/04 05:37:44;;;;;;;8.45;5.50;;;;;;;;;;2090651;28;20500;-57
2023/09/04 05:38:46;;;;;;;10.15;6.20;;;;;;;;;;2090652;28;20040;-57
2023/09/04 05:39:47;;;;;;;7.75;5.60;;;;;;;;;;2090233;28;20401;-58
2023/09/04 05:40:48;;;;;;;8.85;5.93;;;;;;;;;;2090653;28;20171;-57
2023/09/04 05:41:49;;;;;;;8.25;5.78;;;;;;;;;;2090202;28;20045;-57
2023/09/04 05:42:50;;;;;;;6.63;5.70;;;;;;;;;;2089972;28;20400;-58
2023/09/04 05:43:50;;;;;;;7.57;4.82;;;;;;;;;;2090350;28;20170;-57
2023/09/04 05:44:51;;;;;;;7.68;6.00;;;;;;;;;;2090481;28;20136;-58
2023/09/04 05:45:52;;;;;;;8.63;6.47;;;;;;;;;;2090668;28;20017;-57
2023/09/04 05:46:53;;;;;;;8.38;5.68;;;;;;;;;;2090641;28;20036;-56
2023/09/04 05:47:53;;;;;;;9.55;5.75;;;;;;;;;;2090860;28;20041;-56
2023/09/04 05:48:54;;;;;;;6.70;5.43;;;;;;;;;;2090474;28;20366;-58
2023/09/04 05:49:55;;;;;;;9.15;6.45;;;;;;;;;;2090260;28;20048;-56
2023/09/04 05:50:55;;;;;;;8.13;5.80;;;;;;;;;;2090339;28;20040;-58
2023/09/04 05:51:56;;;;;;;9.57;5.72;;;;;;;;;;2090142;28;20053;-57
2023/09/04 05:52:57;;;;;;;7.28;6.20;;;;;;;;;;2090813;28;20044;-57
2023/09/04 05:53:58;;;;;;;7.60;5.25;;;;;;;;;;2090331;28;20389;-58
2023/09/04 05:54:58;;;;;;;6.93;5.57;;;;;;;;;;2090431;28;20479;-58
2023/09/04 05:56:03;;;;;;;7.40;6.25;;;;;;;;;;2090428;28;20024;-58
2023/09/04 05:57:04;;;;;;;9.43;6.30;;;;;;;;;;2090449;28;20044;-57
2023/09/04 05:58:04;;;;;;;10.30;6.18;;;;;;;;;;2090818;28;20045;-58
2023/09/04 05:59:05;;;;;;;7.28;5.55;;;;;;;;;;2090554;28;20178;-57
2023/09/04 06:00:07;;;;;;;6.05;5.20;;;;;;;;;;2090359;28;20120;-58
2023/09/04 06:01:13;;;;;;;7.50;5.32;;;;;;;;;;2090390;28;20033;-58
2023/09/04 06:02:14;;;;;;;7.55;5.70;;;;;;;;;;2090523;28;20037;-56
2023/09/04 06:03:14;;;;;;;6.47;5.38;;;;;;;;;;2090488;28;20063;-58
2023/09/04 06:04:15;;;;;;;6.88;5.93;;;;;;;;;;2090246;28;20481;-57
2023/09/04 06:05:16;;;;;;;6.25;5.20;;;;;;;;;;2090665;28;20033;-56
2023/09/04 06:06:17;;;;;;;7.35;5.72;;;;;;;;;;2090373;28;20036;-57
2023/09/04 06:07:17;;;;;;;6.18;5.43;;;;;;;;;;2090329;28;20029;-58